createdAt,value
2019-03-28T00:01:31.948Z,102741.53
2019-03-28T00:03:57.718Z,102743.36
2019-03-28T00:06:23.501Z,102741.44
2019-03-28T00:08:49.482Z,102740.19
2019-03-28T00:11:15.261Z,102746.09
2019-03-28T00:13:41.059Z,102744.59
2019-03-28T00:16:06.846Z,102738.02
2019-03-28T00:18:32.651Z,102732.53
2019-03-28T00:20:58.427Z,102736.50
2019-03-28T00:23:42.775Z,102735.52
2019-03-28T00:26:08.558Z,102736.86
2019-03-28T00:28:34.354Z,102730.91
2019-03-28T00:31:00.251Z,102738.11
2019-03-28T00:33:26.043Z,102731.73
2019-03-28T00:35:51.828Z,102736.39
2019-03-28T00:38:17.612Z,102740.69
2019-03-28T00:40:43.399Z,102743.23
2019-03-28T00:43:09.194Z,102740.90
2019-03-28T00:45:35.585Z,102740.43
2019-03-28T00:48:02.354Z,102745.02
2019-03-28T00:50:28.199Z,102743.56
2019-03-28T00:52:54.007Z,102746.88
2019-03-28T00:55:19.925Z,102743.67
2019-03-28T00:57:45.715Z,102749.78
2019-03-28T01:00:11.687Z,102742.84
2019-03-28T01:02:37.600Z,102743.56
2019-03-28T01:05:04.578Z,102742.33
2019-03-28T01:07:30.362Z,102743.89
2019-03-28T01:09:56.167Z,102748.36
2019-03-28T01:12:21.949Z,102744.44
2019-03-28T01:14:47.737Z,102744.77
2019-03-28T01:17:13.523Z,102743.20
2019-03-28T01:19:39.312Z,102739.92
2019-03-28T01:22:06.411Z,102724.34
2019-03-28T01:24:32.221Z,102724.34
2019-03-28T01:26:58.937Z,102728.44
2019-03-28T01:29:26.942Z,102726.16
2019-03-28T01:31:52.724Z,102722.70
2019-03-28T01:34:18.814Z,102726.62
2019-03-28T01:36:44.604Z,102730.05
2019-03-28T01:39:10.391Z,102736.00
2019-03-28T01:41:36.199Z,102736.91
2019-03-28T01:44:01.981Z,102740.59
2019-03-28T01:46:28.037Z,102745.42
2019-03-28T01:48:54.666Z,102747.67
2019-03-28T01:51:20.449Z,102756.65
2019-03-28T01:53:46.239Z,102745.70
2019-03-28T01:56:12.044Z,102749.27
2019-03-28T01:58:37.827Z,102753.67
2019-03-28T02:01:04.211Z,102760.39
2019-03-28T02:03:30.206Z,102758.25
2019-03-28T02:05:56.017Z,102758.76
2019-03-28T02:08:24.663Z,102756.58
2019-03-28T02:10:49.574Z,102756.91
2019-03-28T02:13:15.380Z,102759.23
2019-03-28T02:15:41.171Z,102755.56
2019-03-28T02:18:06.956Z,102758.06
2019-03-28T02:20:32.753Z,102757.20
2019-03-28T02:23:00.973Z,102756.36
2019-03-28T02:25:26.827Z,102759.88
2019-03-28T02:27:53.120Z,102762.54
2019-03-28T02:30:22.721Z,102770.56
2019-03-28T02:32:49.212Z,102768.13
2019-03-28T02:35:16.008Z,102773.62
2019-03-28T02:37:41.781Z,102768.45
2019-03-28T02:40:08.120Z,102758.86
2019-03-28T02:42:33.939Z,102758.86
2019-03-28T02:44:59.719Z,102769.44
2019-03-28T02:47:25.500Z,102769.95
2019-03-28T02:49:51.284Z,102772.63
2019-03-28T02:52:17.091Z,102771.58
2019-03-28T02:54:43.353Z,102766.92
2019-03-28T02:57:09.152Z,102773.98
2019-03-28T02:59:34.940Z,102774.34
2019-03-28T03:02:00.746Z,102773.87
2019-03-28T03:04:26.623Z,102771.66
2019-03-28T03:06:52.428Z,102771.58
2019-03-28T03:09:18.202Z,102761.06
2019-03-28T03:11:44.111Z,102769.25
2019-03-28T03:14:09.874Z,102769.25
2019-03-28T03:16:35.674Z,102766.05
2019-03-28T03:19:01.463Z,102767.91
2019-03-28T03:21:27.274Z,102766.28
2019-03-28T03:23:53.067Z,102757.62
2019-03-28T03:26:18.857Z,102774.34
2019-03-28T03:28:44.641Z,102772.52
2019-03-28T03:31:10.448Z,102777.17
2019-03-28T03:33:37.746Z,102776.22
2019-03-28T03:36:04.102Z,102777.54
2019-03-28T03:38:29.908Z,102769.61
2019-03-28T03:40:55.721Z,102767.37
2019-03-28T03:43:23.047Z,102769.44
2019-03-28T03:45:49.181Z,102767.62
2019-03-28T03:48:14.955Z,102778.63
2019-03-28T03:50:40.751Z,102771.30
2019-03-28T03:53:07.512Z,102773.70
2019-03-28T03:55:33.426Z,102784.27
2019-03-28T03:58:14.393Z,102778.63
2019-03-28T04:00:30.708Z,102777.88
2019-03-28T04:02:56.500Z,102781.55
2019-03-28T04:05:22.279Z,102781.17
2019-03-28T04:07:48.073Z,102778.70
2019-03-28T04:10:13.847Z,102777.62
2019-03-28T04:12:39.646Z,102773.62
2019-03-28T04:15:05.606Z,102778.70
2019-03-28T04:17:31.429Z,102777.25
2019-03-28T04:19:57.211Z,102775.15
2019-03-28T04:22:23.015Z,102780.56
2019-03-28T04:24:48.825Z,102778.13
2019-03-28T04:27:14.617Z,102777.25
2019-03-28T04:29:40.393Z,102777.84
2019-03-28T04:32:06.188Z,102779.94
2019-03-28T04:34:31.977Z,102786.56
2019-03-28T04:36:57.791Z,102784.31
2019-03-28T04:39:23.582Z,102777.19
2019-03-28T04:41:49.582Z,102774.06
2019-03-28T04:44:15.670Z,102775.07
2019-03-28T04:46:41.456Z,102780.16
2019-03-28T04:49:07.242Z,102772.13
2019-03-28T04:51:33.135Z,102774.09
2019-03-28T04:53:58.916Z,102758.55
2019-03-28T04:56:24.731Z,102781.77
2019-03-28T04:58:50.510Z,102773.36
2019-03-28T05:01:16.290Z,102780.38
2019-03-28T05:03:42.086Z,102787.42
2019-03-28T05:06:07.873Z,102791.09
2019-03-28T05:08:33.679Z,102795.97
2019-03-28T05:10:59.462Z,102793.89
2019-03-28T05:13:25.243Z,102794.27
2019-03-28T05:15:51.027Z,102803.81
2019-03-28T05:18:16.820Z,102808.44
2019-03-28T05:20:42.606Z,102812.47
2019-03-28T05:23:08.430Z,102799.27
2019-03-28T05:25:34.320Z,102799.27
2019-03-28T05:28:00.121Z,102808.91
2019-03-28T05:30:25.901Z,102808.44
2019-03-28T05:32:51.712Z,102818.33
2019-03-28T05:35:17.481Z,102815.64
2019-03-28T05:37:43.276Z,102811.68
2019-03-28T05:40:09.454Z,102817.06
2019-03-28T05:42:35.290Z,102821.23
2019-03-28T05:45:01.059Z,102823.75
2019-03-28T05:47:26.838Z,102821.69
2019-03-28T05:49:52.632Z,102829.75
2019-03-28T05:52:18.411Z,102831.10
2019-03-28T05:54:44.205Z,102827.54
2019-03-28T05:57:09.988Z,102827.28
2019-03-28T05:59:35.788Z,102830.96
2019-03-28T06:02:01.563Z,102835.19
2019-03-28T06:04:27.352Z,102832.89
2019-03-28T06:06:53.141Z,102837.44
2019-03-28T06:09:19.342Z,102838.38
2019-03-28T06:11:45.436Z,102842.64
2019-03-28T06:14:11.247Z,102848.09
2019-03-28T06:16:37.037Z,102855.80
2019-03-28T06:19:02.844Z,102858.28
2019-03-28T06:21:28.627Z,102859.84
2019-03-28T06:23:54.441Z,102868.64
2019-03-28T06:26:20.226Z,102869.45
2019-03-28T06:28:46.023Z,102866.94
2019-03-28T06:31:11.800Z,102875.67
2019-03-28T06:33:38.517Z,102883.75
2019-03-28T06:36:04.405Z,102882.62
2019-03-28T06:38:30.195Z,102886.95
2019-03-28T06:40:55.992Z,102886.47
2019-03-28T06:43:21.768Z,102887.31
2019-03-28T06:45:47.569Z,102894.30
2019-03-28T06:48:13.362Z,102894.30
2019-03-28T06:50:39.164Z,102892.95
2019-03-28T06:53:04.948Z,102895.75
2019-03-28T06:55:30.744Z,102894.15
2019-03-28T06:57:56.525Z,102893.39
2019-03-28T07:00:22.323Z,102903.03
2019-03-28T07:02:48.110Z,102893.31
2019-03-28T07:05:13.904Z,102899.10
2019-03-28T07:07:39.681Z,102906.20
2019-03-28T07:10:05.876Z,102911.69
2019-03-28T07:12:31.673Z,102909.36
2019-03-28T07:14:59.599Z,102909.36
2019-03-28T07:17:25.169Z,102895.02
2019-03-28T07:19:50.943Z,102895.02
2019-03-28T07:22:16.741Z,102894.11
2019-03-28T07:24:42.529Z,102893.20
2019-03-28T07:27:08.335Z,102893.30
2019-03-28T07:29:34.114Z,102890.78
2019-03-28T07:31:59.917Z,102878.95
2019-03-28T07:34:25.696Z,102891.38
2019-03-28T07:36:51.490Z,102892.47
2019-03-28T07:39:19.063Z,102894.56
2019-03-28T07:41:45.018Z,102887.19
2019-03-28T07:44:10.785Z,102887.19
2019-03-28T07:46:36.641Z,102881.38
2019-03-28T07:49:02.469Z,102883.81
2019-03-28T07:51:28.269Z,102891.78
2019-03-28T07:53:54.050Z,102899.45
2019-03-28T07:56:19.860Z,102906.73
2019-03-28T07:58:45.631Z,102905.02
2019-03-28T08:01:11.449Z,102903.65
2019-03-28T08:03:39.917Z,102904.66
2019-03-28T08:06:05.036Z,102906.31
2019-03-28T08:08:38.753Z,102901.13
2019-03-28T08:10:58.504Z,102907.81
2019-03-28T08:13:24.295Z,102910.09
2019-03-28T08:15:50.279Z,102916.17
2019-03-28T08:18:16.078Z,102918.58
2019-03-28T08:20:41.869Z,102924.45
2019-03-28T08:23:07.673Z,102914.59
2019-03-28T08:25:33.461Z,102923.61
2019-03-28T08:27:59.252Z,102940.81
2019-03-28T08:30:33.429Z,102939.46
2019-03-28T08:32:59.239Z,102942.64
2019-03-28T08:35:25.014Z,102942.39
2019-03-28T08:37:50.911Z,102944.97
2019-03-28T08:40:20.508Z,102938.95
2019-03-28T08:42:46.309Z,102936.13
2019-03-28T08:45:12.190Z,102934.58
2019-03-28T08:47:37.990Z,102939.93
2019-03-28T08:50:05.284Z,102946.81
2019-03-28T08:52:31.095Z,102939.30
2019-03-28T08:54:56.880Z,102939.30
2019-03-28T08:57:22.689Z,102947.38
2019-03-28T08:59:48.468Z,102949.95
2019-03-28T09:02:14.271Z,102944.42
2019-03-28T09:04:40.074Z,102952.30
2019-03-28T09:07:05.889Z,102954.52
2019-03-28T09:09:31.669Z,102957.69
2019-03-28T09:11:57.459Z,102955.59
2019-03-28T09:14:23.252Z,102961.63
2019-03-28T09:16:49.027Z,102962.34
2019-03-28T09:19:14.825Z,102966.52
2019-03-28T09:21:40.614Z,102972.48
2019-03-28T09:24:06.428Z,102972.56
2019-03-28T09:26:32.217Z,102973.12
2019-03-28T09:28:58.012Z,102976.69
2019-03-28T09:31:23.903Z,102984.36
2019-03-28T09:33:49.696Z,102981.02
2019-03-28T09:36:15.488Z,102982.72
2019-03-28T09:38:41.360Z,102983.23
2019-03-28T09:41:07.146Z,102981.94
2019-03-28T09:43:32.942Z,102979.53
2019-03-28T09:46:00.350Z,102975.89
2019-03-28T09:48:26.437Z,102974.77
2019-03-28T09:50:52.222Z,102976.05
2019-03-28T09:53:18.016Z,102984.05
2019-03-28T09:55:43.796Z,102979.52
2019-03-28T09:58:09.598Z,102978.36
2019-03-28T10:00:35.387Z,102985.53
2019-03-28T10:03:01.190Z,102983.63
2019-03-28T10:05:26.978Z,102978.70
2019-03-28T10:07:52.777Z,102984.55
2019-03-28T10:10:18.571Z,102982.56
2019-03-28T10:12:44.373Z,102986.13
2019-03-28T10:15:10.260Z,102990.87
2019-03-28T10:17:36.038Z,102990.86
2019-03-28T10:20:01.843Z,102998.22
2019-03-28T10:22:27.628Z,103005.26
2019-03-28T10:24:53.427Z,103003.47
2019-03-28T10:27:19.490Z,103001.41
2019-03-28T10:29:45.499Z,103000.89
2019-03-28T10:32:11.286Z,103000.45
2019-03-28T10:34:37.186Z,102997.22
2019-03-28T10:37:02.976Z,103002.40
2019-03-28T10:39:28.774Z,103006.80
2019-03-28T10:41:54.870Z,102997.78
2019-03-28T10:44:20.965Z,103005.97
2019-03-28T10:46:46.760Z,102999.96
2019-03-28T10:49:12.550Z,103013.66
2019-03-28T10:51:38.335Z,103003.81
2019-03-28T10:54:04.133Z,102999.16
2019-03-28T10:56:29.928Z,103006.59
2019-03-28T10:58:55.715Z,102994.47
2019-03-28T11:01:36.108Z,103002.40
2019-03-28T11:03:49.224Z,102999.87
2019-03-28T11:06:15.000Z,102998.34
2019-03-28T11:08:40.798Z,103005.38
2019-03-28T11:11:06.574Z,102999.74
2019-03-28T11:13:32.379Z,103000.55
2019-03-28T11:15:58.160Z,103000.06
2019-03-28T11:18:23.979Z,103000.03
2019-03-28T11:20:49.754Z,102992.59
2019-03-28T11:23:15.566Z,102997.14
2019-03-28T11:25:41.354Z,102993.03
2019-03-28T11:28:07.143Z,102993.44
2019-03-28T11:30:32.943Z,102993.77
2019-03-28T11:32:58.736Z,102991.79
2019-03-28T11:35:24.577Z,102996.72
2019-03-28T11:37:50.466Z,102997.14
2019-03-28T11:40:16.277Z,103003.66
2019-03-28T11:42:42.048Z,103000.06
2019-03-28T11:45:09.892Z,103006.42
2019-03-28T11:47:35.853Z,103001.34
2019-03-28T11:50:08.025Z,102987.94
2019-03-28T11:52:33.907Z,102990.71
2019-03-28T11:54:59.706Z,102990.94
2019-03-28T11:57:25.489Z,102996.53
2019-03-28T11:59:51.279Z,102995.93
2019-03-28T12:02:20.379Z,102995.98
2019-03-28T12:04:44.782Z,102995.39
2019-03-28T12:07:10.572Z,102991.35
2019-03-28T12:09:36.373Z,102988.38
2019-03-28T12:12:02.187Z,102997.25
2019-03-28T12:14:27.976Z,102996.13
2019-03-28T12:16:53.770Z,102998.22
2019-03-28T12:19:19.565Z,102990.59
2019-03-28T12:21:45.383Z,102992.30
2019-03-28T12:24:11.144Z,102989.94
2019-03-28T12:26:37.775Z,102991.60
2019-03-28T12:29:05.766Z,102990.27
2019-03-28T12:31:33.254Z,102988.25
2019-03-28T12:33:58.960Z,102986.02
2019-03-28T12:36:24.757Z,102980.92
2019-03-28T12:38:50.549Z,102985.87
2019-03-28T12:41:16.354Z,102983.94
2019-03-28T12:43:42.149Z,102986.64
2019-03-28T12:46:07.947Z,102982.74
2019-03-28T12:48:33.725Z,102983.45
2019-03-28T12:51:00.745Z,102983.43
2019-03-28T12:53:26.817Z,102985.97
2019-03-28T12:55:52.616Z,102976.47
2019-03-28T12:58:18.395Z,102980.77
2019-03-28T13:00:44.191Z,102972.11
2019-03-28T13:03:09.985Z,102978.91
2019-03-28T13:05:35.782Z,102984.31
2019-03-28T13:08:01.566Z,102981.74
2019-03-28T13:10:27.532Z,102974.80
2019-03-28T13:12:53.482Z,102973.92
2019-03-28T13:15:19.282Z,102975.28
2019-03-28T13:17:45.073Z,102979.39
2019-03-28T13:20:11.552Z,102973.62
2019-03-28T13:22:37.362Z,102973.05
2019-03-28T13:25:05.057Z,102971.33
2019-03-28T13:27:30.860Z,102974.52
2019-03-28T13:29:56.650Z,102977.22
2019-03-28T13:32:22.451Z,102974.98
2019-03-28T13:34:48.236Z,102980.91
2019-03-28T13:37:14.044Z,102982.86
2019-03-28T13:39:39.832Z,102981.16
2019-03-28T13:42:05.629Z,102982.07
2019-03-28T13:44:31.416Z,102978.91
2019-03-28T13:46:57.280Z,102982.59
2019-03-28T13:49:23.079Z,102979.61
2019-03-28T13:51:48.923Z,102971.08
2019-03-28T13:54:14.771Z,102971.84
2019-03-28T13:56:40.547Z,102971.48
2019-03-28T13:59:06.348Z,102965.74
2019-03-28T14:01:32.125Z,102964.67
2019-03-28T14:03:57.930Z,102972.91
2019-03-28T14:06:24.841Z,102968.66
2019-03-28T14:08:50.981Z,102964.09
2019-03-28T14:11:16.778Z,102968.43
2019-03-28T14:13:42.571Z,102974.84
2019-03-28T14:16:10.304Z,102971.92
2019-03-28T14:18:36.107Z,102961.49
2019-03-28T14:21:01.905Z,102960.80
2019-03-28T14:23:27.712Z,102961.31
2019-03-28T14:25:53.488Z,102963.80
2019-03-28T14:28:19.285Z,102964.08
2019-03-28T14:30:45.781Z,102962.18
2019-03-28T14:33:15.582Z,102965.30
2019-03-28T14:35:42.585Z,102948.89
2019-03-28T14:38:08.373Z,102956.44
2019-03-28T14:40:34.157Z,102958.38
2019-03-28T14:42:59.994Z,102964.16
2019-03-28T14:45:25.777Z,102970.67
2019-03-28T14:47:51.580Z,102964.61
2019-03-28T14:50:21.360Z,102968.91
2019-03-28T14:52:47.808Z,102960.31
2019-03-28T14:55:13.603Z,102956.42
2019-03-28T14:57:39.495Z,102960.92
2019-03-28T15:00:15.019Z,102958.61
2019-03-28T15:02:40.877Z,102962.27
2019-03-28T15:05:06.751Z,102959.89
2019-03-28T15:07:32.541Z,102962.97
2019-03-28T15:09:58.324Z,102964.39
2019-03-28T15:12:24.101Z,102955.02
2019-03-28T15:14:49.907Z,102955.91
2019-03-28T15:17:15.715Z,102950.62
2019-03-28T15:19:41.500Z,102950.84
2019-03-28T15:22:07.278Z,102948.92
2019-03-28T15:24:33.088Z,102949.14
2019-03-28T15:26:58.892Z,102952.20
2019-03-28T15:29:24.677Z,102953.54
2019-03-28T15:31:50.479Z,102940.66
2019-03-28T15:34:16.276Z,102955.37
2019-03-28T15:36:42.276Z,102953.84
2019-03-28T15:39:08.065Z,102950.02
2019-03-28T15:41:33.841Z,102954.06
2019-03-28T15:43:59.636Z,102953.59
2019-03-28T15:46:27.878Z,102955.33
2019-03-28T15:48:53.843Z,102960.14
2019-03-28T15:51:19.645Z,102954.67
2019-03-28T15:53:45.438Z,102964.72
2019-03-28T15:56:11.228Z,102959.49
2019-03-28T15:58:37.020Z,102961.55
2019-03-28T16:01:02.916Z,102964.85
2019-03-28T16:03:28.706Z,102964.72
2019-03-28T16:05:58.431Z,102963.03
2019-03-28T16:08:22.605Z,102967.80
2019-03-28T16:10:48.401Z,102962.33
2019-03-28T16:13:14.406Z,102968.98
2019-03-28T16:15:40.256Z,102970.45
2019-03-28T16:18:06.040Z,102954.78
2019-03-28T16:20:31.839Z,102958.56
2019-03-28T16:22:58.288Z,102961.08
2019-03-28T16:25:24.521Z,102960.21
2019-03-28T16:27:50.281Z,102960.86
2019-03-28T16:30:19.897Z,102954.50
2019-03-28T16:32:45.691Z,102964.44
2019-03-28T16:35:11.593Z,102964.73
2019-03-28T16:37:37.384Z,102964.20
2019-03-28T16:40:04.088Z,102951.67
2019-03-28T16:42:30.184Z,102959.06
2019-03-28T16:44:56.136Z,102957.71
2019-03-28T16:47:21.971Z,102957.01
2019-03-28T16:49:47.748Z,102958.95
2019-03-28T16:52:13.542Z,102960.95
2019-03-28T16:54:39.329Z,102960.27
2019-03-28T16:57:05.130Z,102957.95
2019-03-28T16:59:30.929Z,102956.61
2019-03-28T17:01:56.728Z,102955.37
2019-03-28T17:04:23.054Z,102953.14
2019-03-28T17:06:49.313Z,102961.80
2019-03-28T17:09:15.103Z,102961.80
2019-03-28T17:11:40.900Z,102968.58
2019-03-28T17:14:06.682Z,102967.73
2019-03-28T17:16:32.483Z,102973.09
2019-03-28T17:18:58.272Z,102975.87
2019-03-28T17:21:24.072Z,102976.33
2019-03-28T17:23:49.874Z,102977.92
2019-03-28T17:26:15.700Z,102970.62
2019-03-28T17:28:41.783Z,102966.20
2019-03-28T17:31:07.582Z,102973.03
2019-03-28T17:33:33.366Z,102972.16
2019-03-28T17:35:59.170Z,102977.11
2019-03-28T17:38:24.960Z,102979.28
2019-03-28T17:40:50.758Z,102979.04
2019-03-28T17:43:16.560Z,102981.91
2019-03-28T17:45:42.445Z,102984.73
2019-03-28T17:48:08.451Z,102988.44
2019-03-28T17:50:34.247Z,102980.66
2019-03-28T17:53:00.051Z,102980.66
2019-03-28T17:55:26.154Z,102992.52
2019-03-28T17:57:51.949Z,102992.52
2019-03-28T18:00:17.933Z,102973.41
2019-03-28T18:02:43.734Z,102982.45
2019-03-28T18:05:12.087Z,102978.08
2019-03-28T18:07:37.254Z,102982.52
2019-03-28T18:10:04.540Z,102990.41
2019-03-28T18:12:30.640Z,102995.81
2019-03-28T18:14:56.447Z,102990.56
2019-03-28T18:17:22.370Z,103002.67
2019-03-28T18:19:48.153Z,102998.77
2019-03-28T18:22:13.951Z,102995.64
2019-03-28T18:24:39.960Z,102996.80
2019-03-28T18:27:06.013Z,103002.94
2019-03-28T18:29:31.993Z,103009.69
2019-03-28T18:31:57.785Z,103005.37
2019-03-28T18:34:23.591Z,103004.88
2019-03-28T18:36:49.384Z,103006.59
2019-03-28T18:39:15.246Z,103012.35
2019-03-28T18:41:41.062Z,103007.08
2019-03-28T18:44:06.918Z,103007.80
2019-03-28T18:46:32.709Z,103009.15
2019-03-28T18:48:58.642Z,103014.55
2019-03-28T18:51:24.429Z,103013.48
2019-03-28T18:53:50.316Z,103015.15
2019-03-28T18:56:16.148Z,103014.56
2019-03-28T18:58:41.953Z,103018.77
2019-03-28T19:01:07.860Z,103015.43
2019-03-28T19:03:33.648Z,103010.07
2019-03-28T19:05:59.562Z,103018.45
2019-03-28T19:08:25.339Z,103021.31
2019-03-28T19:10:51.276Z,103020.32
2019-03-28T19:13:17.041Z,103014.72
2019-03-28T19:15:42.838Z,103019.40
2019-03-28T19:18:08.629Z,103019.81
2019-03-28T19:20:35.852Z,103015.40
2019-03-28T19:23:01.823Z,103021.23
2019-03-28T19:25:27.652Z,103024.09
2019-03-28T19:27:53.422Z,103024.01
2019-03-28T19:30:26.156Z,103023.29
2019-03-28T19:32:51.944Z,103021.89
2019-03-28T19:35:17.737Z,103023.72
2019-03-28T19:37:43.713Z,103020.45
2019-03-28T19:40:09.820Z,103021.96
2019-03-28T19:42:36.419Z,103020.73
2019-03-28T19:45:04.425Z,103021.16
2019-03-28T19:47:30.264Z,103025.12
2019-03-28T19:49:56.062Z,103030.41
2019-03-28T19:52:21.857Z,103037.52
2019-03-28T19:54:47.668Z,103033.73
2019-03-28T19:57:13.453Z,103028.55
2019-03-28T19:59:39.248Z,103026.55
2019-03-28T20:02:05.041Z,103033.42
2019-03-28T20:04:30.857Z,103025.63
2019-03-28T20:06:56.645Z,103035.09
2019-03-28T20:09:22.442Z,103038.31
2019-03-28T20:11:48.231Z,103035.34
2019-03-28T20:14:14.016Z,103026.79
2019-03-28T20:16:39.808Z,103031.53
2019-03-28T20:19:05.602Z,103041.48
2019-03-28T20:21:31.401Z,103038.99
2019-03-28T20:23:57.204Z,103041.48
2019-03-28T20:26:22.998Z,103036.56
2019-03-28T20:28:48.786Z,103044.95
2019-03-28T20:31:14.581Z,103044.95
2019-03-28T20:33:40.413Z,103050.73
2019-03-28T20:36:30.059Z,103043.78
2019-03-28T20:38:34.366Z,103046.94
2019-03-28T20:41:00.416Z,103046.94
2019-03-28T20:43:26.892Z,103041.17
2019-03-28T20:45:52.907Z,103047.83
2019-03-28T20:48:18.690Z,103047.05
2019-03-28T20:50:44.549Z,103055.87
2019-03-28T20:53:10.420Z,103059.49
2019-03-28T20:55:36.332Z,103060.69
2019-03-28T20:58:02.825Z,103063.23
2019-03-28T21:00:38.841Z,103059.03
2019-03-28T21:03:04.926Z,103059.03
2019-03-28T21:05:30.777Z,103070.09
2019-03-28T21:07:56.560Z,103067.48
2019-03-28T21:10:23.143Z,103062.92
2019-03-28T21:12:48.953Z,103065.20
2019-03-28T21:15:14.732Z,103062.30
2019-03-28T21:17:40.529Z,103060.27
2019-03-28T21:20:06.414Z,103056.17
2019-03-28T21:22:32.228Z,103056.89
2019-03-28T21:24:58.026Z,103063.33
2019-03-28T21:27:23.819Z,103067.70
2019-03-28T21:29:51.013Z,103070.09
2019-03-28T21:32:17.125Z,103061.83
2019-03-28T21:34:42.914Z,103061.83
2019-03-28T21:37:08.706Z,103072.88
2019-03-28T21:39:34.815Z,103069.30
2019-03-28T21:42:00.706Z,103072.98
2019-03-28T21:44:26.568Z,103067.48
2019-03-28T21:46:52.385Z,103064.38
2019-03-28T21:49:18.165Z,103068.06
2019-03-28T21:51:45.891Z,103072.77
2019-03-28T21:54:11.667Z,103070.59
2019-03-28T21:56:37.446Z,103070.29
2019-03-28T21:59:03.260Z,103068.47
2019-03-28T22:01:29.033Z,103072.72
2019-03-28T22:03:54.845Z,103065.32
2019-03-28T22:06:20.925Z,103064.27
2019-03-28T22:08:46.729Z,103061.56
2019-03-28T22:11:12.512Z,103057.16
2019-03-28T22:13:38.310Z,103064.99
2019-03-28T22:16:07.384Z,103058.09
2019-03-28T22:18:31.893Z,103050.98
2019-03-28T22:20:57.684Z,103046.64
2019-03-28T22:23:23.483Z,103041.34
2019-03-28T22:25:49.297Z,103038.02
2019-03-28T22:28:15.090Z,103038.02
2019-03-28T22:30:40.892Z,103030.14
2019-03-28T22:33:06.712Z,103030.14
2019-03-28T22:35:32.496Z,103026.05
2019-03-28T22:37:58.681Z,103025.20
2019-03-28T22:40:24.482Z,103027.97
2019-03-28T22:42:50.267Z,103025.16
2019-03-28T22:45:16.061Z,103018.94
2019-03-28T22:47:41.843Z,103023.49
2019-03-28T22:50:07.945Z,103023.66
2019-03-28T22:52:33.747Z,103019.14
2019-03-28T22:54:59.571Z,103016.48
2019-03-28T22:57:25.347Z,103027.28
2019-03-28T22:59:51.161Z,103013.28
2019-03-28T23:02:16.935Z,103012.45
2019-03-28T23:04:42.737Z,103010.59
2019-03-28T23:07:11.068Z,103014.99
2019-03-28T23:09:36.231Z,103019.87
2019-03-28T23:12:02.018Z,103016.70
2019-03-28T23:14:27.821Z,103012.56
2019-03-28T23:16:55.073Z,103016.97
2019-03-28T23:19:21.089Z,103009.14
2019-03-28T23:21:46.869Z,103010.73
2019-03-28T23:24:12.696Z,103014.27
2019-03-28T23:26:38.497Z,103010.95
2019-03-28T23:29:04.358Z,103013.48
2019-03-28T23:31:30.167Z,103007.73
2019-03-28T23:33:56.248Z,103005.29
2019-03-28T23:36:22.752Z,103003.84
2019-03-28T23:38:48.531Z,102998.64
2019-03-28T23:41:14.331Z,103004.30
2019-03-28T23:43:40.117Z,103002.59
2019-03-28T23:46:05.909Z,102994.64
2019-03-28T23:48:31.709Z,102995.13
2019-03-28T23:50:58.708Z,102995.38
2019-03-28T23:53:24.637Z,102984.22
2019-03-28T23:55:50.434Z,102982.78
2019-03-28T23:58:16.224Z,102977.02
